sensor_id;sensor_type;location;lat;lon;timestamp;pressure;altitude;pressure_sealevel;temperature;humidity
44765;BME280;30484;52.382;5.260;2023-02-12T00:01:47;103932.88;;;10.10;100.00
44765;BME280;30484;52.382;5.260;2023-02-12T00:04:16;103934.69;;;10.10;100.00
44765;BME280;30484;52.382;5.260;2023-02-12T00:06:45;103932.88;;;10.04;100.00
44765;BME280;30484;52.382;5.260;2023-02-12T00:09:14;103923.97;;;9.97;100.00
44765;BME280;30484;52.382;5.260;2023-02-12T00:11:43;103930.22;;;10.01;100.00
44765;BME280;30484;52.382;5.260;2023-02-12T00:14:13;103927.53;;;9.99;100.00
44765;BME280;30484;52.382;5.260;2023-02-12T00:16:42;103935.53;;;9.89;100.00
44765;BME280;30484;52.382;5.260;2023-02-12T00:19:10;103932.88;;;9.95;100.00
44765;BME280;30484;52.382;5.260;2023-02-12T00:21:39;103931.06;;;9.86;100.00
44765;BME280;30484;52.382;5.260;2023-02-12T00:24:08;103930.19;;;9.82;100.00
44765;BME280;30484;52.382;5.260;2023-02-12T00:26:36;103923.03;;;9.78;100.00
44765;BME280;30484;52.382;5.260;2023-02-12T00:29:05;103927.47;;;9.67;100.00
44765;BME280;30484;52.382;5.260;2023-02-12T00:31:36;103926.53;;;9.62;100.00
44765;BME280;30484;52.382;5.260;2023-02-12T00:34:05;103931.88;;;9.56;100.00
44765;BME280;30484;52.382;5.260;2023-02-12T00:36:34;103935.41;;;9.50;100.00
44765;BME280;30484;52.382;5.260;2023-02-12T00:39:03;103935.41;;;9.45;100.00
44765;BME280;30484;52.382;5.260;2023-02-12T00:41:31;103935.38;;;9.39;100.00
44765;BME280;30484;52.382;5.260;2023-02-12T00:44:00;103940.66;;;9.33;100.00
44765;BME280;30484;52.382;5.260;2023-02-12T00:46:28;103936.19;;;9.24;100.00
44765;BME280;30484;52.382;5.260;2023-02-12T00:48:59;103932.59;;;9.18;100.00
44765;BME280;30484;52.382;5.260;2023-02-12T00:51:27;103934.34;;;9.09;100.00
44765;BME280;30484;52.382;5.260;2023-02-12T00:53:56;103930.75;;;9.06;100.00
44765;BME280;30484;52.382;5.260;2023-02-12T00:56:24;103920.94;;;8.97;100.00
44765;BME280;30484;52.382;5.260;2023-02-12T00:58:55;103927.09;;;8.88;100.00
44765;BME280;30484;52.382;5.260;2023-02-12T01:01:24;103929.75;;;8.84;100.00
44765;BME280;30484;52.382;5.260;2023-02-12T01:03:53;103924.34;;;8.77;100.00
44765;BME280;30484;52.382;5.260;2023-02-12T01:06:23;103935.00;;;8.74;100.00
44765;BME280;30484;52.382;5.260;2023-02-12T01:08:52;103925.16;;;8.64;100.00
44765;BME280;30484;52.382;5.260;2023-02-12T01:11:20;103929.50;;;8.53;100.00
44765;BME280;30484;52.382;5.260;2023-02-12T01:13:49;103918.72;;;8.43;100.00
44765;BME280;30484;52.382;5.260;2023-02-12T01:16:20;103922.28;;;8.42;100.00
44765;BME280;30484;52.382;5.260;2023-02-12T01:18:50;103932.00;;;8.39;100.00
44765;BME280;30484;52.382;5.260;2023-02-12T01:21:26;103940.81;;;8.30;100.00
44765;BME280;30484;52.382;5.260;2023-02-12T01:23:56;103937.28;;;8.29;100.00
44765;BME280;30484;52.382;5.260;2023-02-12T01:26:26;103938.97;;;8.21;100.00
44765;BME280;30484;52.382;5.260;2023-02-12T01:28:58;103938.03;;;8.18;100.00
44765;BME280;30484;52.382;5.260;2023-02-12T01:31:31;103940.69;;;8.15;100.00
44765;BME280;30484;52.382;5.260;2023-02-12T01:34:00;103944.16;;;8.09;100.00
44765;BME280;30484;52.382;5.260;2023-02-12T01:36:31;103939.69;;;8.03;100.00
44765;BME280;30484;52.382;5.260;2023-02-12T01:38:59;103940.53;;;8.01;100.00
44765;BME280;30484;52.382;5.260;2023-02-12T01:41:35;103939.56;;;7.91;100.00
44765;BME280;30484;52.382;5.260;2023-02-12T01:44:12;103946.69;;;7.95;100.00
44765;BME280;30484;52.382;5.260;2023-02-12T01:46:43;103944.03;;;7.95;100.00
44765;BME280;30484;52.382;5.260;2023-02-12T01:49:17;103941.31;;;7.89;100.00
44765;BME280;30484;52.382;5.260;2023-02-12T01:51:50;103940.41;;;7.85;100.00
44765;BME280;30484;52.382;5.260;2023-02-12T01:54:20;103939.47;;;7.85;100.00
44765;BME280;30484;52.382;5.260;2023-02-12T01:56:52;103929.75;;;7.85;100.00
44765;BME280;30484;52.382;5.260;2023-02-12T01:59:21;103945.72;;;7.85;100.00
44765;BME280;30484;52.382;5.260;2023-02-12T02:01:51;103940.34;;;7.82;100.00
44765;BME280;30484;52.382;5.260;2023-02-12T02:04:25;103928.78;;;7.78;100.00
44765;BME280;30484;52.382;5.260;2023-02-12T02:06:57;103935.81;;;7.73;100.00
44765;BME280;30484;52.382;5.260;2023-02-12T02:09:28;103943.81;;;7.76;100.00
44765;BME280;30484;52.382;5.260;2023-02-12T02:11:58;103941.97;;;7.71;100.00
44765;BME280;30484;52.382;5.260;2023-02-12T02:14:45;103929.56;;;7.70;100.00
44765;BME280;30484;52.382;5.260;2023-02-12T02:17:43;103951.78;;;7.73;100.00
44765;BME280;30484;52.382;5.260;2023-02-12T02:23:59;103936.66;;;7.72;100.00
44765;BME280;30484;52.382;5.260;2023-02-12T02:26:47;103933.16;;;7.75;100.00
44765;BME280;30484;52.382;5.260;2023-02-12T02:32:49;103930.56;;;7.80;100.00
44765;BME280;30484;52.382;5.260;2023-02-12T02:35:27;103920.78;;;7.78;100.00
44765;BME280;30484;52.382;5.260;2023-02-12T02:38:10;103925.25;;;7.80;100.00
44765;BME280;30484;52.382;5.260;2023-02-12T02:40:51;103925.28;;;7.83;100.00
44765;BME280;30484;52.382;5.260;2023-02-12T02:43:27;103918.16;;;7.83;100.00
44765;BME280;30484;52.382;5.260;2023-02-12T02:46:05;103916.34;;;7.79;100.00
44765;BME280;30484;52.382;5.260;2023-02-12T02:48:39;103913.63;;;7.74;100.00
44765;BME280;30484;52.382;5.260;2023-02-12T02:51:17;103910.94;;;7.71;100.00
44765;BME280;30484;52.382;5.260;2023-02-12T02:53:52;103906.47;;;7.69;100.00
44765;BME280;30484;52.382;5.260;2023-02-12T02:56:24;103917.13;;;7.69;100.00
44765;BME280;30484;52.382;5.260;2023-02-12T02:59:00;103915.31;;;7.65;100.00
44765;BME280;30484;52.382;5.260;2023-02-12T03:01:35;103909.00;;;7.58;100.00
44765;BME280;30484;52.382;5.260;2023-02-12T03:04:13;103916.09;;;7.56;100.00
44765;BME280;30484;52.382;5.260;2023-02-12T03:06:49;103907.19;;;7.54;100.00
44765;BME280;30484;52.382;5.260;2023-02-12T03:09:24;103917.81;;;7.54;100.00
44765;BME280;30484;52.382;5.260;2023-02-12T03:11:58;103902.66;;;7.47;100.00
44765;BME280;30484;52.382;5.260;2023-02-12T03:14:33;103908.94;;;7.52;100.00
44765;BME280;30484;52.382;5.260;2023-02-12T03:17:09;103914.25;;;7.52;100.00
44765;BME280;30484;52.382;5.260;2023-02-12T03:19:45;103910.75;;;7.53;100.00
44765;BME280;30484;52.382;5.260;2023-02-12T03:22:17;103910.78;;;7.56;100.00
44765;BME280;30484;52.382;5.260;2023-02-12T03:24:54;103898.31;;;7.52;100.00
44765;BME280;30484;52.382;5.260;2023-02-12T03:27:30;103909.03;;;7.59;100.00
44765;BME280;30484;52.382;5.260;2023-02-12T03:29:59;103900.16;;;7.59;100.00
44765;BME280;30484;52.382;5.260;2023-02-12T03:32:34;103904.66;;;7.66;100.00
44765;BME280;30484;52.382;5.260;2023-02-12T03:35:17;103901.13;;;7.64;100.00
44765;BME280;30484;52.382;5.260;2023-02-12T03:37:55;103902.03;;;7.69;100.00
44765;BME280;30484;52.382;5.260;2023-02-12T03:40:33;103910.97;;;7.74;100.00
44765;BME280;30484;52.382;5.260;2023-02-12T03:43:07;103911.88;;;7.76;100.00
44765;BME280;30484;52.382;5.260;2023-02-12T03:45:42;103913.66;;;7.77;100.00
44765;BME280;30484;52.382;5.260;2023-02-12T03:48:18;103915.53;;;7.85;100.00
44765;BME280;30484;52.382;5.260;2023-02-12T03:50:56;103920.03;;;7.92;100.00
44765;BME280;30484;52.382;5.260;2023-02-12T03:53:26;103909.41;;;7.95;100.00
44765;BME280;30484;52.382;5.260;2023-02-12T03:56:01;103912.16;;;8.03;100.00
44765;BME280;30484;52.382;5.260;2023-02-12T03:58:32;103916.53;;;7.96;100.00
44765;BME280;30484;52.382;5.260;2023-02-12T04:01:02;103920.13;;;8.00;100.00
44765;BME280;30484;52.382;5.260;2023-02-12T04:03:31;103915.78;;;8.09;100.00
44765;BME280;30484;52.382;5.260;2023-02-12T04:06:01;103918.47;;;8.11;100.00
44765;BME280;30484;52.382;5.260;2023-02-12T04:08:31;103928.25;;;8.15;100.00
44765;BME280;30484;52.382;5.260;2023-02-12T04:11:10;103926.53;;;8.20;100.00
44765;BME280;30484;52.382;5.260;2023-02-12T04:14:05;103927.47;;;8.24;100.00
44765;BME280;30484;52.382;5.260;2023-02-12T04:16:42;103934.59;;;8.28;100.00
44765;BME280;30484;52.382;5.260;2023-02-12T04:19:19;103932.84;;;8.30;100.00
44765;BME280;30484;52.382;5.260;2023-02-12T04:22:14;103936.44;;;8.35;100.00
44765;BME280;30484;52.382;5.260;2023-02-12T04:24:57;103945.34;;;8.40;100.00
44765;BME280;30484;52.382;5.260;2023-02-12T04:27:36;103943.59;;;8.42;100.00
44765;BME280;30484;52.382;5.260;2023-02-12T04:30:19;103946.28;;;8.42;100.00
44765;BME280;30484;52.382;5.260;2023-02-12T04:32:52;103953.50;;;8.54;100.00
44765;BME280;30484;52.382;5.260;2023-02-12T04:35:27;103947.31;;;8.57;100.00
44765;BME280;30484;52.382;5.260;2023-02-12T04:38:06;103956.22;;;8.62;100.00
44765;BME280;30484;52.382;5.260;2023-02-12T04:40:39;103950.97;;;8.71;100.00
44765;BME280;30484;52.382;5.260;2023-02-12T04:43:09;103948.31;;;8.74;100.00
44765;BME280;30484;52.382;5.260;2023-02-12T04:45:38;103952.81;;;8.78;100.00
44765;BME280;30484;52.382;5.260;2023-02-12T04:48:07;103951.09;;;8.87;100.00
44765;BME280;30484;52.382;5.260;2023-02-12T04:50:40;103957.34;;;8.95;100.00
44765;BME280;30484;52.382;5.260;2023-02-12T04:53:10;103964.47;;;8.99;100.00
44765;BME280;30484;52.382;5.260;2023-02-12T04:55:40;103968.09;;;9.04;100.00
44765;BME280;30484;52.382;5.260;2023-02-12T04:58:09;103968.16;;;9.15;100.00
44765;BME280;30484;52.382;5.260;2023-02-12T05:00:38;103961.06;;;9.19;100.00
44765;BME280;30484;52.382;5.260;2023-02-12T05:03:07;103961.06;;;9.22;100.00
44765;BME280;30484;52.382;5.260;2023-02-12T05:05:35;103968.22;;;9.26;100.00
44765;BME280;30484;52.382;5.260;2023-02-12T05:08:04;103958.41;;;9.25;100.00
44765;BME280;30484;52.382;5.260;2023-02-12T05:10:34;103968.28;;;9.35;100.00
44765;BME280;30484;52.382;5.260;2023-02-12T05:13:03;103967.38;;;9.38;100.00
44765;BME280;30484;52.382;5.260;2023-02-12T05:15:32;103960.28;;;9.44;100.00
44765;BME280;30484;52.382;5.260;2023-02-12T05:18:01;103958.53;;;9.48;100.00
44765;BME280;30484;52.382;5.260;2023-02-12T05:20:30;103953.22;;;9.49;100.00
44765;BME280;30484;52.382;5.260;2023-02-12T05:22:58;103964.78;;;9.55;100.00
44765;BME280;30484;52.382;5.260;2023-02-12T05:25:27;103954.09;;;9.52;100.00
44765;BME280;30484;52.382;5.260;2023-02-12T05:27:59;103964.78;;;9.56;100.00
44765;BME280;30484;52.382;5.260;2023-02-12T05:30:28;103962.16;;;9.58;100.00
44765;BME280;30484;52.382;5.260;2023-02-12T05:32:57;103970.16;;;9.64;100.00
44765;BME280;30484;52.382;5.260;2023-02-12T05:35:26;103960.41;;;9.69;100.00
44765;BME280;30484;52.382;5.260;2023-02-12T05:37:55;103963.09;;;9.75;100.00
44765;BME280;30484;52.382;5.260;2023-02-12T05:40:24;103971.09;;;9.75;100.00
44765;BME280;30484;52.382;5.260;2023-02-12T05:42:53;103972.91;;;9.76;100.00
44765;BME280;30484;52.382;5.260;2023-02-12T05:45:23;103964.91;;;9.81;100.00
44765;BME280;30484;52.382;5.260;2023-02-12T05:47:54;103967.56;;;9.85;100.00
44765;BME280;30484;52.382;5.260;2023-02-12T05:50:23;103970.25;;;9.82;100.00
44765;BME280;30484;52.382;5.260;2023-02-12T05:52:51;103967.56;;;9.92;100.00
44765;BME280;30484;52.382;5.260;2023-02-12T05:55:20;103964.91;;;9.90;100.00
44765;BME280;30484;52.382;5.260;2023-02-12T05:57:50;103973.84;;;9.94;100.00
44765;BME280;30484;52.382;5.260;2023-02-12T06:00:22;103970.28;;;9.96;100.00
44765;BME280;30484;52.382;5.260;2023-02-12T06:02:51;103963.16;;;9.97;100.00
44765;BME280;30484;52.382;5.260;2023-02-12T06:05:19;103965.81;;;9.97;100.00
44765;BME280;30484;52.382;5.260;2023-02-12T06:07:48;103955.13;;;9.97;100.00
44765;BME280;30484;52.382;5.260;2023-02-12T06:10:17;103972.94;;;9.95;100.00
44765;BME280;30484;52.382;5.260;2023-02-12T06:12:45;103970.28;;;10.04;100.00
44765;BME280;30484;52.382;5.260;2023-02-12T06:15:14;103975.63;;;10.09;100.00
44765;BME280;30484;52.382;5.260;2023-02-12T06:17:44;103968.53;;;10.11;100.00
44765;BME280;30484;52.382;5.260;2023-02-12T06:20:13;103965.84;;;10.11;100.00
44765;BME280;30484;52.382;5.260;2023-02-12T06:22:42;103972.09;;;10.16;100.00
44765;BME280;30484;52.382;5.260;2023-02-12T06:25:10;103973.88;;;10.22;100.00
44765;BME280;30484;52.382;5.260;2023-02-12T06:27:39;103965.84;;;10.20;100.00
44765;BME280;30484;52.382;5.260;2023-02-12T06:30:09;103965.88;;;10.25;100.00
44765;BME280;30484;52.382;5.260;2023-02-12T06:32:38;103968.56;;;10.25;100.00
44765;BME280;30484;52.382;5.260;2023-02-12T06:35:09;103975.66;;;10.26;100.00
44765;BME280;30484;52.382;5.260;2023-02-12T06:37:38;103972.13;;;10.27;100.00
44765;BME280;30484;52.382;5.260;2023-02-12T06:40:08;103980.13;;;10.27;100.00
44765;BME280;30484;52.382;5.260;2023-02-12T06:42:36;103974.78;;;10.31;100.00
44765;BME280;30484;52.382;5.260;2023-02-12T06:45:06;103981.91;;;10.32;100.00
44765;BME280;30484;52.382;5.260;2023-02-12T06:47:34;103976.56;;;10.31;100.00
44765;BME280;30484;52.382;5.260;2023-02-12T06:50:04;103975.66;;;10.29;100.00
44765;BME280;30484;52.382;5.260;2023-02-12T06:52:34;103965.88;;;10.31;100.00
44765;BME280;30484;52.382;5.260;2023-02-12T06:55:03;103983.75;;;10.35;100.00
44765;BME280;30484;52.382;5.260;2023-02-12T06:57:32;103981.91;;;10.28;100.00
44765;BME280;30484;52.382;5.260;2023-02-12T07:00:01;103989.09;;;10.35;100.00
44765;BME280;30484;52.382;5.260;2023-02-12T07:02:29;103991.72;;;10.32;100.00
44765;BME280;30484;52.382;5.260;2023-02-12T07:04:59;103994.41;;;10.32;100.00
44765;BME280;30484;52.382;5.260;2023-02-12T07:07:28;103994.44;;;10.38;100.00
44765;BME280;30484;52.382;5.260;2023-02-12T07:09:59;103989.09;;;10.44;100.00
44765;BME280;30484;52.382;5.260;2023-02-12T07:12:27;103981.94;;;10.40;100.00
44765;BME280;30484;52.382;5.260;2023-02-12T07:14:56;103986.41;;;10.46;100.00
44765;BME280;30484;52.382;5.260;2023-02-12T07:17:24;103986.44;;;10.52;100.00
44765;BME280;30484;52.382;5.260;2023-02-12T07:19:53;103984.63;;;10.39;100.00
44765;BME280;30484;52.382;5.260;2023-02-12T07:22:22;103994.44;;;10.57;100.00
44765;BME280;30484;52.382;5.260;2023-02-12T07:24:50;104005.13;;;10.60;100.00
44765;BME280;30484;52.382;5.260;2023-02-12T07:27:20;103998.00;;;10.56;100.00
44765;BME280;30484;52.382;5.260;2023-02-12T07:29:49;104009.59;;;10.64;100.00
44765;BME280;30484;52.382;5.260;2023-02-12T07:32:18;104015.81;;;10.66;100.00
44765;BME280;30484;52.382;5.260;2023-02-12T07:34:47;104004.25;;;10.65;100.00
44765;BME280;30484;52.382;5.260;2023-02-12T07:37:15;104014.03;;;10.76;100.00
44765;BME280;30484;52.382;5.260;2023-02-12T07:39:48;104014.03;;;10.77;100.00
44765;BME280;30484;52.382;5.260;2023-02-12T07:42:17;104020.31;;;10.78;100.00
44765;BME280;30484;52.382;5.260;2023-02-12T07:44:47;104028.31;;;10.82;100.00
44765;BME280;30484;52.382;5.260;2023-02-12T07:47:16;104028.31;;;10.85;100.00
44765;BME280;30484;52.382;5.260;2023-02-12T07:49:45;104019.41;;;10.86;100.00
44765;BME280;30484;52.382;5.260;2023-02-12T07:52:13;104028.34;;;10.95;100.00
44765;BME280;30484;52.382;5.260;2023-02-12T07:54:42;104019.41;;;10.93;100.00
44765;BME280;30484;52.382;5.260;2023-02-12T07:57:11;104035.47;;;11.00;100.00
44765;BME280;30484;52.382;5.260;2023-02-12T07:59:39;104030.97;;;11.02;100.00
44765;BME280;30484;52.382;5.260;2023-02-12T08:02:09;104029.19;;;11.00;100.00
44765;BME280;30484;52.382;5.260;2023-02-12T08:04:38;104024.72;;;11.08;100.00
44765;BME280;30484;52.382;5.260;2023-02-12T08:07:07;104039.00;;;11.09;100.00
44765;BME280;30484;52.382;5.260;2023-02-12T08:09:35;104030.97;;;11.04;100.00
44765;BME280;30484;52.382;5.260;2023-02-12T08:12:04;104038.09;;;11.11;100.00
44765;BME280;30484;52.382;5.260;2023-02-12T08:14:33;104043.47;;;11.20;100.00
44765;BME280;30484;52.382;5.260;2023-02-12T08:17:01;104040.78;;;11.20;100.00
44765;BME280;30484;52.382;5.260;2023-02-12T08:19:32;104038.06;;;11.30;100.00
44765;BME280;30484;52.382;5.260;2023-02-12T08:22:01;104046.09;;;11.33;100.00
44765;BME280;30484;52.382;5.260;2023-02-12T08:24:30;104039.88;;;11.18;100.00
44765;BME280;30484;52.382;5.260;2023-02-12T08:26:59;104045.22;;;11.42;100.00
44765;BME280;30484;52.382;5.260;2023-02-12T08:29:29;104041.59;;;11.46;100.00
44765;BME280;30484;52.382;5.260;2023-02-12T08:32:00;104058.53;;;11.54;100.00
44765;BME280;30484;52.382;5.260;2023-02-12T08:34:33;104048.75;;;11.45;100.00
44765;BME280;30484;52.382;5.260;2023-02-12T08:37:04;104060.31;;;11.60;100.00
44765;BME280;30484;52.382;5.260;2023-02-12T08:39:34;104063.94;;;11.42;100.00
44765;BME280;30484;52.382;5.260;2023-02-12T08:42:02;104065.69;;;11.66;100.00
44765;BME280;30484;52.382;5.260;2023-02-12T08:44:32;104059.41;;;11.68;100.00
44765;BME280;30484;52.382;5.260;2023-02-12T08:47:00;104071.03;;;11.60;100.00
44765;BME280;30484;52.382;5.260;2023-02-12T08:49:29;104067.50;;;11.42;100.00
44765;BME280;30484;52.382;5.260;2023-02-12T08:52:00;104079.16;;;11.18;100.00
44765;BME280;30484;52.382;5.260;2023-02-12T08:54:30;104075.53;;;11.33;100.00
44765;BME280;30484;52.382;5.260;2023-02-12T08:57:01;104077.31;;;11.45;100.00
44765;BME280;30484;52.382;5.260;2023-02-12T08:59:29;104075.50;;;11.61;100.00
44765;BME280;30484;52.382;5.260;2023-02-12T09:01:58;104072.78;;;11.73;100.00
44765;BME280;30484;52.382;5.260;2023-02-12T09:04:28;104077.22;;;11.75;100.00
44765;BME280;30484;52.382;5.260;2023-02-12T09:06:58;104081.78;;;11.50;100.00
44765;BME280;30484;52.382;5.260;2023-02-12T09:09:27;104078.09;;;11.85;100.00
44765;BME280;30484;52.382;5.260;2023-02-12T09:11:56;104082.56;;;11.85;100.00
44765;BME280;30484;52.382;5.260;2023-02-12T09:14:24;104090.63;;;11.74;100.00
44765;BME280;30484;52.382;5.260;2023-02-12T09:16:53;104086.13;;;11.96;100.00
44765;BME280;30484;52.382;5.260;2023-02-12T09:19:24;104082.63;;;11.57;100.00
44765;BME280;30484;52.382;5.260;2023-02-12T09:21:54;104086.06;;;12.13;100.00
44765;BME280;30484;52.382;5.260;2023-02-12T09:24:25;104078.00;;;12.16;100.00
44765;BME280;30484;52.382;5.260;2023-02-12T09:26:54;104094.16;;;11.91;100.00
44765;BME280;30484;52.382;5.260;2023-02-12T09:29:23;104091.38;;;12.19;100.00
44765;BME280;30484;52.382;5.260;2023-02-12T09:31:54;104086.09;;;12.08;100.00
44765;BME280;30484;52.382;5.260;2023-02-12T09:34:24;104086.03;;;12.16;100.00
44765;BME280;30484;52.382;5.260;2023-02-12T09:36:52;104088.69;;;12.19;100.00
44765;BME280;30484;52.382;5.260;2023-02-12T09:39:21;104085.09;;;12.26;100.00
44765;BME280;30484;52.382;5.260;2023-02-12T09:42:30;104089.53;;;12.29;100.00
44765;BME280;30484;52.382;5.260;2023-02-12T09:45:14;104083.31;;;12.21;100.00
44765;BME280;30484;52.382;5.260;2023-02-12T09:47:50;104077.94;;;12.30;100.00
44765;BME280;30484;52.382;5.260;2023-02-12T09:50:36;104090.59;;;11.96;100.00
44765;BME280;30484;52.382;5.260;2023-02-12T09:53:12;104069.66;;;12.64;100.00
44765;BME280;30484;52.382;5.260;2023-02-12T09:55:42;104083.22;;;12.38;100.00
44765;BME280;30484;52.382;5.260;2023-02-12T09:58:17;104071.56;;;12.43;100.00
44765;BME280;30484;52.382;5.260;2023-02-12T10:00:48;104079.69;;;12.36;100.00
44765;BME280;30484;52.382;5.260;2023-02-12T10:03:17;104074.28;;;12.39;100.00
44765;BME280;30484;52.382;5.260;2023-02-12T10:05:49;104082.97;;;12.78;100.00
44765;BME280;30484;52.382;5.260;2023-02-12T10:08:40;104077.69;;;12.66;100.00
44765;BME280;30484;52.382;5.260;2023-02-12T10:11:48;104087.66;;;12.47;100.00
44765;BME280;30484;52.382;5.260;2023-02-12T10:17:45;104073.47;;;12.28;100.00
44765;BME280;30484;52.382;5.260;2023-02-12T10:20:48;104078.34;;;12.99;100.00
44765;BME280;30484;52.382;5.260;2023-02-12T10:23:45;104084.88;;;12.60;100.00
44765;BME280;30484;52.382;5.260;2023-02-12T10:26:24;104081.22;;;12.71;100.00
44765;BME280;30484;52.382;5.260;2023-02-12T10:29:03;104072.44;;;12.50;100.00
44765;BME280;30484;52.382;5.260;2023-02-12T10:31:42;104085.72;;;12.70;100.00
44765;BME280;30484;52.382;5.260;2023-02-12T10:34:17;104069.69;;;12.59;100.00
44765;BME280;30484;52.382;5.260;2023-02-12T10:36:49;104087.34;;;12.91;100.00
44765;BME280;30484;52.382;5.260;2023-02-12T10:39:22;104079.28;;;12.91;100.00
44765;BME280;30484;52.382;5.260;2023-02-12T10:41:57;104084.47;;;13.11;100.00
44765;BME280;30484;52.382;5.260;2023-02-12T10:44:29;104088.13;;;13.06;100.00
44765;BME280;30484;52.382;5.260;2023-02-12T10:47:00;104085.69;;;12.72;100.00
44765;BME280;30484;52.382;5.260;2023-02-12T10:49:30;104080.34;;;12.72;100.00
44765;BME280;30484;52.382;5.260;2023-02-12T10:52:08;104081.09;;;12.88;100.00
44765;BME280;30484;52.382;5.260;2023-02-12T10:54:41;104082.97;;;12.75;100.00
44765;BME280;30484;52.382;5.260;2023-02-12T10:57:17;104078.94;;;12.01;100.00
44765;BME280;30484;52.382;5.260;2023-02-12T10:59:50;104081.50;;;12.28;100.00
44765;BME280;30484;52.382;5.260;2023-02-12T11:02:28;104084.22;;;12.24;100.00
44765;BME280;30484;52.382;5.260;2023-02-12T11:04:59;104080.69;;;12.13;100.00
44765;BME280;30484;52.382;5.260;2023-02-12T11:07:28;104078.84;;;12.26;100.00
44765;BME280;30484;52.382;5.260;2023-02-12T11:10:21;104073.47;;;12.26;100.00
44765;BME280;30484;52.382;5.260;2023-02-12T11:12:55;104076.09;;;12.34;100.00
44765;BME280;30484;52.382;5.260;2023-02-12T11:15:28;104078.75;;;12.43;100.00
44765;BME280;30484;52.382;5.260;2023-02-12T11:18:03;104078.75;;;12.37;100.00
44765;BME280;30484;52.382;5.260;2023-02-12T11:20:48;104092.34;;;12.01;100.00
44765;BME280;30484;52.382;5.260;2023-02-12T11:23:27;104073.28;;;12.54;100.00
44765;BME280;30484;52.382;5.260;2023-02-12T11:26:00;104076.91;;;12.48;100.00
44765;BME280;30484;52.382;5.260;2023-02-12T11:28:31;104073.59;;;12.06;100.00
44765;BME280;30484;52.382;5.260;2023-02-12T11:31:02;104068.84;;;12.48;100.00
44765;BME280;30484;52.382;5.260;2023-02-12T11:33:35;104069.50;;;12.81;100.00
44765;BME280;30484;52.382;5.260;2023-02-12T11:36:12;104061.81;;;12.32;100.00
44765;BME280;30484;52.382;5.260;2023-02-12T11:38:50;104056.34;;;12.52;100.00
44765;BME280;30484;52.382;5.260;2023-02-12T11:41:30;104064.44;;;12.46;100.00
44765;BME280;30484;52.382;5.260;2023-02-12T11:44:01;104063.44;;;12.59;100.00
44765;BME280;30484;52.382;5.260;2023-02-12T11:46:36;104060.66;;;12.73;100.00
44765;BME280;30484;52.382;5.260;2023-02-12T11:49:23;104057.97;;;12.73;100.00
44765;BME280;30484;52.382;5.260;2023-02-12T11:51:54;104051.75;;;12.68;100.00
44765;BME280;30484;52.382;5.260;2023-02-12T11:54:25;104054.47;;;12.62;100.00
44765;BME280;30484;52.382;5.260;2023-02-12T11:56:57;104055.53;;;12.39;100.00
44765;BME280;30484;52.382;5.260;2023-02-12T11:59:35;104055.16;;;12.90;100.00
44765;BME280;30484;52.382;5.260;2023-02-12T12:02:16;104047.88;;;13.00;100.00
44765;BME280;30484;52.382;5.260;2023-02-12T12:04:53;104054.41;;;12.71;100.00
44765;BME280;30484;52.382;5.260;2023-02-12T12:07:28;104037.94;;;13.09;100.00
44765;BME280;30484;52.382;5.260;2023-02-12T12:10:04;104055.75;;;13.21;100.00
44765;BME280;30484;52.382;5.260;2023-02-12T12:12:40;104050.97;;;12.53;100.00
44765;BME280;30484;52.382;5.260;2023-02-12T12:15:15;104055.19;;;12.84;100.00
44765;BME280;30484;52.382;5.260;2023-02-12T12:18:12;104049.47;;;13.22;100.00
44765;BME280;30484;52.382;5.260;2023-02-12T12:21:12;104043.13;;;13.29;100.00
44765;BME280;30484;52.382;5.260;2023-02-12T12:23:51;104048.03;;;12.84;100.00
44765;BME280;30484;52.382;5.260;2023-02-12T12:26:23;104037.97;;;13.08;100.00
44765;BME280;30484;52.382;5.260;2023-02-12T12:29:00;104030.63;;;13.28;100.00
44765;BME280;30484;52.382;5.260;2023-02-12T12:31:36;104032.56;;;13.14;100.00
44765;BME280;30484;52.382;5.260;2023-02-12T12:34:09;104034.59;;;12.87;100.00
44765;BME280;30484;52.382;5.260;2023-02-12T12:37:14;104038.91;;;13.04;100.00
44765;BME280;30484;52.382;5.260;2023-02-12T12:40:00;104023.25;;;13.49;100.00
44765;BME280;30484;52.382;5.260;2023-02-12T12:42:54;104033.47;;;13.13;100.00
44765;BME280;30484;52.382;5.260;2023-02-12T12:49:17;104034.97;;;13.42;100.00
44765;BME280;30484;52.382;5.260;2023-02-12T12:52:18;104024.81;;;12.80;100.00
44765;BME280;30484;52.382;5.260;2023-02-12T12:55:15;104031.69;;;13.10;100.00
44765;BME280;30484;52.382;5.260;2023-02-12T12:57:59;104030.19;;;12.80;100.00
44765;BME280;30484;52.382;5.260;2023-02-12T13:00:47;104022.78;;;13.05;100.00
44765;BME280;30484;52.382;5.260;2023-02-12T13:06:50;104016.81;;;13.61;100.00
44765;BME280;30484;52.382;5.260;2023-02-12T13:09:34;104018.31;;;13.06;100.00
44765;BME280;30484;52.382;5.260;2023-02-12T13:12:41;104012.88;;;13.12;100.00
44765;BME280;30484;52.382;5.260;2023-02-12T13:15:25;104012.47;;;13.52;100.00
44765;BME280;30484;52.382;5.260;2023-02-12T13:18:08;104004.59;;;13.37;100.00
44765;BME280;30484;52.382;5.260;2023-02-12T13:20:49;103991.94;;;13.45;100.00
44765;BME280;30484;52.382;5.260;2023-02-12T13:23:30;103994.59;;;13.51;100.00
44765;BME280;30484;52.382;5.260;2023-02-12T13:26:12;103995.44;;;13.53;100.00
44765;BME280;30484;52.382;5.260;2023-02-12T13:28:47;103988.25;;;13.57;100.00
44765;BME280;30484;52.382;5.260;2023-02-12T13:31:20;103991.00;;;13.49;100.00
44765;BME280;30484;52.382;5.260;2023-02-12T13:34:03;103987.34;;;13.56;100.00
44765;BME280;30484;52.382;5.260;2023-02-12T13:36:35;103987.69;;;13.25;100.00